createdAt,value
2022-11-03T00:02:09.107Z,9.55
2022-11-03T00:04:36.711Z,8.23
2022-11-03T00:07:04.311Z,5.15
2022-11-03T00:09:31.939Z,6.82
2022-11-03T00:11:59.561Z,3.95
2022-11-03T00:14:27.081Z,5.85
2022-11-03T00:16:54.938Z,5.28
2022-11-03T00:19:22.479Z,5.47
2022-11-03T00:21:50.310Z,10.52
2022-11-03T00:24:17.802Z,4.68
2022-11-03T00:26:45.317Z,6.05
2022-11-03T00:29:15.424Z,6.93
2022-11-03T00:31:44.984Z,6.03
2022-11-03T00:34:13.082Z,2.35
2022-11-03T00:36:42.816Z,5.75
2022-11-03T00:39:11.047Z,3.63
2022-11-03T00:41:38.943Z,4.65
2022-11-03T00:44:06.542Z,4.25
2022-11-03T00:46:37.161Z,6.28
2022-11-03T00:49:05.830Z,5.82
2022-11-03T00:51:35.189Z,4.05
2022-11-03T00:54:04.889Z,7.35
2022-11-03T00:56:35.162Z,6.82
2022-11-03T00:59:03.891Z,5.25
2022-11-03T01:01:42.216Z,9.00
2022-11-03T01:04:31.443Z,9.23
2022-11-03T01:07:00.824Z,7.15
2022-11-03T01:09:36.793Z,10.93
2022-11-03T01:12:16.251Z,5.00
2022-11-03T01:14:49.258Z,8.25
2022-11-03T01:17:20.351Z,4.47
2022-11-03T01:19:48.722Z,7.10
2022-11-03T01:22:17.099Z,6.90
2022-11-03T01:24:45.162Z,6.55
2022-11-03T01:27:16.002Z,5.18
2022-11-03T01:29:44.011Z,6.00
2022-11-03T01:32:12.111Z,6.55
2022-11-03T01:34:40.038Z,8.23
2022-11-03T01:37:07.983Z,7.28
2022-11-03T01:39:35.724Z,5.75
2022-11-03T01:42:03.743Z,13.40
2022-11-03T01:44:46.850Z,7.93
2022-11-03T01:47:22.251Z,8.23
2022-11-03T01:49:49.708Z,10.32
2022-11-03T01:52:21.410Z,8.38
2022-11-03T01:54:56.453Z,9.02
2022-11-03T01:57:29.287Z,9.95
2022-11-03T01:59:59.473Z,10.38
2022-11-03T02:02:28.246Z,11.55
2022-11-03T02:05:00.870Z,12.50
2022-11-03T02:07:40.768Z,10.07
2022-11-03T02:10:09.526Z,10.70
2022-11-03T02:12:37.892Z,10.68
2022-11-03T02:15:09.581Z,11.75
2022-11-03T02:17:39.976Z,11.30
2022-11-03T02:20:16.318Z,9.60
2022-11-03T02:22:46.823Z,6.13
2022-11-03T02:25:40.571Z,6.10
2022-11-03T02:28:08.960Z,12.65
2022-11-03T02:30:46.192Z,11.30
2022-11-03T02:33:43.642Z,8.57
2022-11-03T02:36:26.968Z,10.48
2022-11-03T02:39:56.100Z,10.97
2022-11-03T02:42:25.381Z,10.32
2022-11-03T02:44:57.472Z,15.93
2022-11-03T02:47:28.551Z,6.78
2022-11-03T02:52:41.094Z,15.27
2022-11-03T02:55:08.892Z,15.45
2022-11-03T02:57:45.747Z,13.13
2022-11-03T03:00:15.991Z,11.80
2022-11-03T03:02:54.822Z,12.73
2022-11-03T03:05:27.408Z,10.70
2022-11-03T03:08:01.902Z,18.42
2022-11-03T03:10:44.161Z,11.68
2022-11-03T03:13:15.751Z,11.85
2022-11-03T03:15:50.601Z,8.00
2022-11-03T03:18:29.019Z,8.82
2022-11-03T03:21:11.551Z,11.07
2022-11-03T03:23:49.814Z,10.95
2022-11-03T03:26:41.767Z,10.85
2022-11-03T03:29:15.704Z,11.27
2022-11-03T03:31:51.541Z,14.55
2022-11-03T03:34:34.482Z,10.27
2022-11-03T03:37:05.313Z,9.93
2022-11-03T03:39:38.497Z,12.05
2022-11-03T03:42:10.942Z,10.98
2022-11-03T03:44:40.820Z,9.77
2022-11-03T03:47:18.636Z,12.32
2022-11-03T03:49:46.347Z,11.45
2022-11-03T03:52:15.161Z,10.05
2022-11-03T03:54:42.770Z,6.68
2022-11-03T03:57:18.534Z,9.38
2022-11-03T03:59:46.731Z,7.75
2022-11-03T04:02:15.005Z,10.55
2022-11-03T04:04:42.852Z,11.82
2022-11-03T04:07:28.998Z,10.13
2022-11-03T04:09:56.581Z,7.07
2022-11-03T04:12:42.883Z,6.72
2022-11-03T04:15:32.952Z,9.38
2022-11-03T04:18:19.203Z,11.13
2022-11-03T04:21:05.421Z,7.72
2022-11-03T04:23:33.052Z,12.00
2022-11-03T04:26:01.190Z,10.18
2022-11-03T04:28:29.357Z,11.65
2022-11-03T04:30:59.208Z,8.70
2022-11-03T04:33:29.113Z,8.32
2022-11-03T04:35:59.646Z,7.90
2022-11-03T04:38:29.461Z,10.07
2022-11-03T04:40:58.557Z,6.75
2022-11-03T04:43:35.011Z,9.35
2022-11-03T04:46:02.587Z,10.40
2022-11-03T04:48:30.237Z,11.13
2022-11-03T04:51:10.445Z,8.68
2022-11-03T04:53:38.027Z,9.55
2022-11-03T04:56:15.463Z,8.18
2022-11-03T04:58:43.050Z,10.13
2022-11-03T05:01:13.364Z,5.97
2022-11-03T05:03:43.478Z,8.48
2022-11-03T05:06:17.144Z,12.30
2022-11-03T05:08:48.489Z,12.60
2022-11-03T05:11:19.049Z,15.13
2022-11-03T05:13:47.587Z,6.88
2022-11-03T05:16:15.078Z,11.63
2022-11-03T05:18:46.659Z,12.23
2022-11-03T05:21:17.950Z,6.07
2022-11-03T05:23:56.156Z,7.30
2022-11-03T05:26:28.675Z,6.18
2022-11-03T05:29:00.725Z,9.18
2022-11-03T05:31:30.484Z,12.77
2022-11-03T05:34:03.157Z,6.72
2022-11-03T05:36:33.360Z,7.70
2022-11-03T05:39:24.237Z,9.55
2022-11-03T05:41:51.849Z,9.18
2022-11-03T05:44:26.284Z,10.85
2022-11-03T05:46:53.835Z,7.70
2022-11-03T05:49:21.444Z,9.52
2022-11-03T05:51:49.664Z,13.30
2022-11-03T05:54:25.868Z,7.85
2022-11-03T05:56:55.228Z,10.63
2022-11-03T05:59:29.827Z,8.65
2022-11-03T06:02:01.342Z,9.88
2022-11-03T06:04:34.410Z,8.00
2022-11-03T06:07:25.007Z,10.00
2022-11-03T06:09:53.955Z,10.38
2022-11-03T06:12:24.084Z,9.60
2022-11-03T06:14:52.388Z,7.45
2022-11-03T06:17:26.294Z,9.75
2022-11-03T06:19:59.535Z,12.57
2022-11-03T06:22:31.526Z,22.90
2022-11-03T06:25:16.938Z,13.35
2022-11-03T06:27:44.577Z,14.55
2022-11-03T06:30:21.434Z,11.50
2022-11-03T06:32:49.125Z,15.10
2022-11-03T06:35:16.969Z,16.05
2022-11-03T06:37:45.234Z,14.43
2022-11-03T06:40:15.491Z,12.77
2022-11-03T06:42:43.280Z,11.50
2022-11-03T06:45:20.996Z,15.63
2022-11-03T06:47:49.918Z,18.13
2022-11-03T06:50:23.313Z,9.25
2022-11-03T06:52:51.744Z,13.43
2022-11-03T06:55:26.579Z,10.95
2022-11-03T06:58:04.963Z,11.57
2022-11-03T07:00:35.094Z,9.88
2022-11-03T07:03:03.889Z,10.45
2022-11-03T07:05:33.022Z,7.90
2022-11-03T07:08:04.381Z,8.63
2022-11-03T07:10:34.039Z,8.90
2022-11-03T07:13:10.801Z,8.43
2022-11-03T07:15:39.925Z,7.15
2022-11-03T07:18:21.608Z,10.13
2022-11-03T07:20:49.636Z,8.73
2022-11-03T07:23:23.199Z,6.15
2022-11-03T07:25:58.064Z,8.02
2022-11-03T07:28:31.387Z,11.40
2022-11-03T07:31:01.688Z,6.57
2022-11-03T07:33:32.188Z,11.27
2022-11-03T07:36:16.793Z,9.77
2022-11-03T07:38:48.157Z,8.82
2022-11-03T07:41:19.963Z,6.47
2022-11-03T07:43:56.269Z,9.20
2022-11-03T07:46:25.073Z,7.35
2022-11-03T07:48:58.624Z,11.18
2022-11-03T07:51:32.628Z,8.70
2022-11-03T07:54:08.588Z,9.70
2022-11-03T07:56:43.067Z,6.85
2022-11-03T07:59:11.687Z,5.63
2022-11-03T08:01:57.147Z,7.30
2022-11-03T08:04:31.374Z,8.55
2022-11-03T08:06:58.998Z,8.80
2022-11-03T08:09:27.343Z,7.43
2022-11-03T08:11:54.989Z,6.28
2022-11-03T08:14:23.808Z,8.95
2022-11-03T08:16:51.304Z,10.00
2022-11-03T08:19:18.880Z,8.50
2022-11-03T08:21:46.255Z,4.15
2022-11-03T08:24:13.830Z,7.20
2022-11-03T08:26:41.269Z,8.77
2022-11-03T08:29:08.864Z,5.88
2022-11-03T08:31:36.324Z,10.05
2022-11-03T08:34:03.933Z,7.97
2022-11-03T08:36:31.408Z,9.38
2022-11-03T08:38:58.857Z,7.68
2022-11-03T08:41:26.381Z,9.65
2022-11-03T08:43:53.858Z,7.35
2022-11-03T08:46:21.637Z,7.40
2022-11-03T08:48:49.586Z,7.70
2022-11-03T08:51:17.126Z,8.00
2022-11-03T08:53:44.908Z,5.72
2022-11-03T08:56:15.136Z,8.18
2022-11-03T08:58:44.318Z,7.03
2022-11-03T09:01:12.012Z,9.65
2022-11-03T09:03:40.537Z,7.88
2022-11-03T09:06:08.599Z,9.57
2022-11-03T09:11:23.657Z,12.95
2022-11-03T09:13:51.185Z,6.95
2022-11-03T09:16:18.631Z,6.32
2022-11-03T09:18:46.149Z,6.97
2022-11-03T09:21:15.100Z,10.55
2022-11-03T09:23:42.876Z,9.32
2022-11-03T09:26:10.320Z,8.90
2022-11-03T09:28:37.834Z,10.02
2022-11-03T09:31:05.398Z,7.43
2022-11-03T09:33:33.084Z,7.00
2022-11-03T09:36:02.063Z,9.65
2022-11-03T09:38:29.619Z,8.88
2022-11-03T09:40:57.177Z,7.65
2022-11-03T09:43:24.617Z,4.97
2022-11-03T09:45:53.598Z,7.13
2022-11-03T09:48:21.309Z,8.23
2022-11-03T09:50:53.518Z,9.40
2022-11-03T09:53:22.053Z,11.63
2022-11-03T09:55:49.638Z,6.35
2022-11-03T09:58:18.178Z,8.02
2022-11-03T10:00:46.440Z,9.77
2022-11-03T10:03:18.134Z,5.20
2022-11-03T10:05:46.211Z,10.05
2022-11-03T10:08:34.336Z,7.57
2022-11-03T10:11:02.514Z,6.05
2022-11-03T10:13:40.218Z,5.43
2022-11-03T10:16:12.027Z,10.00
2022-11-03T10:18:39.626Z,6.68
2022-11-03T10:21:19.363Z,8.98
2022-11-03T10:23:47.370Z,5.93
2022-11-03T10:26:18.791Z,4.60
2022-11-03T10:29:03.812Z,4.65
2022-11-03T10:31:36.197Z,6.38
2022-11-03T10:34:04.700Z,5.80
2022-11-03T10:36:33.944Z,7.97
2022-11-03T10:39:26.079Z,6.00
2022-11-03T10:41:58.930Z,5.53
2022-11-03T10:44:28.843Z,8.05
2022-11-03T10:47:01.455Z,6.43
2022-11-03T10:49:36.554Z,4.03
2022-11-03T10:52:24.970Z,8.43
2022-11-03T10:54:55.064Z,7.63
2022-11-03T10:57:23.468Z,7.35
2022-11-03T10:59:53.873Z,9.15
2022-11-03T11:02:28.923Z,5.05
2022-11-03T11:05:02.059Z,4.90
2022-11-03T11:07:43.490Z,6.63
2022-11-03T11:10:18.366Z,5.38
2022-11-03T11:13:21.775Z,8.02
2022-11-03T11:15:54.818Z,5.18
2022-11-03T11:18:31.144Z,4.90
2022-11-03T11:21:19.821Z,6.03
2022-11-03T11:23:48.888Z,9.50
2022-11-03T11:26:36.704Z,6.43
2022-11-03T11:29:10.407Z,5.47
2022-11-03T11:31:38.738Z,7.63
2022-11-03T11:34:18.573Z,9.77
2022-11-03T11:36:55.047Z,6.85
2022-11-03T11:39:28.777Z,8.68
2022-11-03T11:42:15.809Z,6.38
2022-11-03T11:44:43.272Z,9.50
2022-11-03T11:47:32.166Z,9.02
2022-11-03T11:50:05.781Z,10.65
2022-11-03T11:52:54.032Z,5.68
2022-11-03T11:59:27.972Z,6.22
2022-11-03T12:01:57.202Z,6.50
2022-11-03T12:04:31.403Z,6.38
2022-11-03T12:06:59.577Z,6.45
2022-11-03T12:09:28.405Z,8.82
2022-11-03T12:12:00.637Z,6.43
2022-11-03T12:14:38.468Z,6.82
2022-11-03T12:17:14.977Z,6.70
2022-11-03T12:19:44.487Z,7.40
2022-11-03T12:22:24.807Z,9.07
2022-11-03T12:25:02.049Z,6.47
2022-11-03T12:27:29.497Z,9.50
2022-11-03T12:30:02.421Z,10.88
2022-11-03T12:32:34.984Z,9.77
2022-11-03T12:35:04.972Z,6.10
2022-11-03T12:37:32.544Z,11.20
2022-11-03T12:40:00.045Z,6.90
2022-11-03T12:42:28.258Z,6.80
2022-11-03T12:44:56.140Z,12.88
2022-11-03T12:47:23.918Z,8.60
2022-11-03T12:49:51.379Z,8.55
2022-11-03T12:52:18.992Z,12.15
2022-11-03T12:54:46.424Z,14.07
2022-11-03T12:57:14.107Z,11.05
2022-11-03T12:59:41.587Z,8.88
2022-11-03T13:02:10.824Z,10.07
2022-11-03T13:04:39.083Z,10.32
2022-11-03T13:07:06.659Z,10.88
2022-11-03T13:09:36.087Z,5.60
2022-11-03T13:12:22.298Z,6.40
2022-11-03T13:14:49.756Z,9.52
2022-11-03T13:17:17.279Z,9.15
2022-11-03T13:19:44.813Z,10.75
2022-11-03T13:22:12.287Z,12.15
2022-11-03T13:24:39.929Z,9.52
2022-11-03T13:27:07.386Z,11.68
2022-11-03T13:29:35.921Z,8.50
2022-11-03T13:32:04.413Z,14.02
2022-11-03T13:34:32.080Z,10.02
2022-11-03T13:36:59.731Z,14.57
2022-11-03T13:39:27.297Z,10.38
2022-11-03T13:41:54.790Z,13.25
2022-11-03T13:44:22.269Z,11.48
2022-11-03T13:46:49.683Z,14.82
2022-11-03T13:52:05.220Z,14.20
2022-11-03T14:00:14.026Z,13.45
2022-11-03T14:05:29.210Z,10.73
2022-11-03T14:07:56.782Z,12.40
2022-11-03T14:10:24.316Z,13.95
2022-11-03T14:12:51.698Z,15.18
2022-11-03T14:15:19.349Z,11.13
2022-11-03T14:17:46.809Z,15.68
2022-11-03T14:20:14.458Z,17.35
2022-11-03T14:22:41.999Z,13.57
2022-11-03T14:25:10.208Z,17.48
2022-11-03T14:27:37.770Z,12.00
2022-11-03T14:30:06.166Z,14.70
2022-11-03T14:32:33.666Z,16.02
2022-11-03T14:35:01.174Z,17.55
2022-11-03T14:37:28.903Z,13.25
2022-11-03T14:39:56.467Z,15.77
2022-11-03T14:42:24.017Z,17.23
2022-11-03T14:47:25.673Z,16.17
2022-11-03T14:49:53.377Z,19.10
2022-11-03T14:52:20.858Z,13.20
2022-11-03T14:54:48.509Z,15.57
2022-11-03T14:57:15.971Z,18.00
2022-11-03T14:59:43.909Z,17.30
2022-11-03T15:02:13.813Z,18.85
2022-11-03T15:04:42.155Z,21.33
2022-11-03T15:07:09.659Z,13.20
2022-11-03T15:09:37.117Z,15.88
2022-11-03T15:12:04.789Z,16.23
2022-11-03T15:14:32.224Z,15.32
2022-11-03T15:16:59.644Z,19.30
2022-11-03T15:19:27.055Z,17.25
2022-11-03T15:21:54.524Z,16.70
2022-11-03T15:27:09.476Z,19.83
2022-11-03T15:29:37.696Z,14.40
2022-11-03T15:32:05.526Z,14.60
2022-11-03T15:34:32.966Z,16.42
2022-11-03T15:37:00.383Z,16.42
2022-11-03T15:39:29.935Z,19.23
2022-11-03T15:41:57.511Z,17.20
2022-11-03T15:44:25.008Z,16.98
2022-11-03T15:46:52.557Z,18.98
2022-11-03T15:49:20.126Z,17.65
2022-11-03T15:51:47.659Z,15.38
2022-11-03T15:54:15.118Z,17.20
2022-11-03T15:56:42.504Z,17.25
2022-11-03T15:59:09.924Z,19.23
2022-11-03T16:01:37.486Z,15.15
2022-11-03T16:04:05.064Z,16.65
2022-11-03T16:09:20.564Z,22.98
2022-11-03T16:11:47.967Z,16.52
2022-11-03T16:14:15.529Z,17.00
2022-11-03T16:16:42.989Z,16.50
2022-11-03T16:19:10.513Z,18.17
2022-11-03T16:21:38.023Z,18.80
2022-11-03T16:24:05.783Z,15.63
2022-11-03T16:26:33.578Z,17.85
2022-11-03T16:29:01.149Z,18.15
2022-11-03T16:31:28.817Z,18.10
2022-11-03T16:33:56.309Z,19.05
2022-11-03T16:36:23.817Z,26.33
2022-11-03T16:38:51.308Z,25.02
2022-11-03T16:41:18.856Z,14.57
2022-11-03T16:43:47.882Z,19.80
2022-11-03T16:46:15.599Z,19.27
2022-11-03T16:48:43.108Z,22.20
2022-11-03T16:51:10.698Z,20.35
2022-11-03T16:53:38.137Z,19.75
2022-11-03T16:56:05.826Z,18.27
2022-11-03T16:58:33.258Z,17.55
2022-11-03T17:01:00.844Z,16.75
2022-11-03T17:03:28.378Z,17.67
2022-11-03T17:05:55.995Z,19.63
2022-11-03T17:08:51.206Z,17.88
2022-11-03T17:11:11.287Z,23.90
2022-11-03T17:13:38.770Z,20.00
2022-11-03T17:16:06.294Z,16.42
2022-11-03T17:18:33.760Z,21.05
2022-11-03T17:21:01.387Z,19.92
2022-11-03T17:23:28.778Z,16.27
2022-11-03T17:25:59.928Z,17.63
2022-11-03T17:28:27.639Z,15.88
2022-11-03T17:30:55.099Z,20.83
2022-11-03T17:33:22.656Z,21.58
2022-11-03T17:35:50.132Z,15.82
2022-11-03T17:38:18.716Z,16.52
2022-11-03T17:40:47.916Z,19.63
2022-11-03T17:43:34.662Z,18.02
2022-11-03T17:46:02.097Z,21.77
2022-11-03T17:48:29.478Z,23.52
2022-11-03T17:50:57.216Z,20.30
2022-11-03T17:53:28.493Z,19.38
2022-11-03T17:56:28.036Z,19.05
2022-11-03T17:58:47.130Z,17.48
2022-11-03T18:01:25.080Z,17.35
2022-11-03T18:03:53.399Z,22.40
2022-11-03T18:06:21.554Z,20.65
2022-11-03T18:08:49.713Z,21.90
2022-11-03T18:11:47.318Z,23.70
2022-11-03T18:14:16.014Z,21.60
2022-11-03T18:16:43.579Z,18.42
2022-11-03T18:19:13.070Z,21.15
2022-11-03T18:21:41.219Z,20.23
2022-11-03T18:24:19.998Z,19.33
2022-11-03T18:26:48.540Z,18.75
2022-11-03T18:29:16.088Z,21.38
2022-11-03T18:31:50.816Z,18.13
2022-11-03T18:34:24.027Z,20.27
2022-11-03T18:36:52.960Z,21.35
2022-11-03T18:39:30.049Z,24.45
2022-11-03T18:41:57.622Z,23.30
2022-11-03T18:44:30.277Z,22.52
2022-11-03T18:46:58.685Z,25.15
2022-11-03T18:49:27.565Z,23.05
2022-11-03T18:52:03.037Z,23.00
2022-11-03T18:54:34.049Z,25.17
2022-11-03T18:57:02.958Z,20.65
2022-11-03T18:59:37.672Z,23.95
2022-11-03T19:02:19.970Z,23.67
2022-11-03T19:04:48.259Z,22.33
2022-11-03T19:07:22.196Z,25.88
2022-11-03T19:09:50.233Z,22.52
2022-11-03T19:12:18.478Z,23.08
2022-11-03T19:14:48.257Z,25.95
2022-11-03T19:17:23.328Z,19.52
2022-11-03T19:19:53.184Z,28.00
2022-11-03T19:22:22.260Z,23.40
2022-11-03T19:24:49.777Z,29.67
2022-11-03T19:27:21.710Z,22.00
2022-11-03T19:29:49.447Z,23.15
2022-11-03T19:32:22.699Z,28.27
2022-11-03T19:35:01.067Z,22.40
2022-11-03T19:37:35.399Z,27.55
2022-11-03T19:40:09.155Z,27.60
2022-11-03T19:42:37.228Z,27.10
2022-11-03T19:45:07.589Z,26.75
2022-11-03T19:48:23.796Z,24.42
2022-11-03T19:50:43.763Z,25.30
2022-11-03T19:53:16.656Z,26.63
2022-11-03T19:55:44.308Z,27.88
2022-11-03T19:58:18.639Z,24.52
2022-11-03T20:00:47.380Z,29.95
2022-11-03T20:03:15.357Z,25.95
2022-11-03T20:05:49.348Z,24.63
2022-11-03T20:08:21.285Z,27.15
2022-11-03T20:10:48.979Z,26.98
2022-11-03T20:13:20.020Z,26.92
2022-11-03T20:15:47.983Z,25.23
2022-11-03T20:18:15.945Z,28.20
2022-11-03T20:20:45.567Z,26.38
2022-11-03T20:23:22.746Z,24.77
2022-11-03T20:25:50.458Z,24.15
2022-11-03T20:28:29.570Z,28.80
2022-11-03T20:30:57.660Z,25.83
2022-11-03T20:33:25.706Z,23.60
2022-11-03T20:35:54.650Z,27.35
2022-11-03T20:38:25.162Z,27.27
2022-11-03T20:41:00.428Z,28.30
2022-11-03T20:43:32.707Z,25.23
2022-11-03T20:46:00.797Z,29.35
2022-11-03T20:48:28.288Z,27.73
2022-11-03T20:50:55.966Z,24.30
2022-11-03T20:53:24.836Z,27.00
2022-11-03T20:55:52.779Z,25.65
2022-11-03T20:58:20.385Z,23.77
2022-11-03T21:00:49.071Z,26.27
2022-11-03T21:03:37.365Z,25.38
2022-11-03T21:06:04.735Z,28.80
2022-11-03T21:08:32.189Z,23.42
2022-11-03T21:11:19.627Z,26.33
2022-11-03T21:13:47.136Z,25.38
2022-11-03T21:16:33.557Z,27.35
2022-11-03T21:19:19.616Z,22.92
2022-11-03T21:21:47.177Z,20.42
2022-11-03T21:24:14.694Z,27.33
2022-11-03T21:26:42.437Z,24.63
2022-11-03T21:29:09.848Z,20.98
2022-11-03T21:31:37.358Z,23.23
2022-11-03T21:34:04.860Z,26.17
2022-11-03T21:36:32.291Z,22.45
2022-11-03T21:38:59.746Z,26.25
2022-11-03T21:41:45.957Z,22.17
2022-11-03T21:44:16.477Z,21.38
2022-11-03T21:46:44.629Z,21.60
2022-11-03T21:49:34.964Z,21.60
2022-11-03T21:52:02.513Z,22.77
2022-11-03T21:54:29.954Z,25.00
2022-11-03T21:56:57.418Z,22.67
2022-11-03T21:59:25.429Z,26.10
2022-11-03T22:01:55.282Z,27.42
2022-11-03T22:04:23.208Z,24.45
2022-11-03T22:06:54.204Z,23.52
2022-11-03T22:09:22.324Z,24.30
2022-11-03T22:11:50.237Z,26.33
2022-11-03T22:14:17.816Z,20.20
2022-11-03T22:16:46.215Z,22.73
2022-11-03T22:19:38.488Z,25.42
2022-11-03T22:22:30.398Z,25.50
2022-11-03T22:25:16.697Z,20.92
2022-11-03T22:27:44.519Z,25.50
2022-11-03T22:30:30.905Z,26.33
2022-11-03T22:32:58.617Z,21.02
2022-11-03T22:35:44.713Z,22.05
2022-11-03T22:38:17.183Z,17.83
2022-11-03T22:41:06.397Z,27.23
2022-11-03T22:43:52.780Z,25.85
2022-11-03T22:46:20.968Z,20.88
2022-11-03T22:48:48.450Z,23.88
2022-11-03T22:51:16.903Z,23.52
2022-11-03T22:54:03.109Z,20.85
2022-11-03T22:56:30.818Z,21.55
2022-11-03T22:58:58.235Z,20.65
2022-11-03T23:01:30.239Z,20.38
2022-11-03T23:03:58.090Z,22.63
2022-11-03T23:06:27.587Z,21.67
2022-11-03T23:08:55.949Z,30.52
2022-11-03T23:11:31.127Z,21.48
2022-11-03T23:14:04.515Z,23.33
2022-11-03T23:16:37.858Z,25.33
2022-11-03T23:19:25.284Z,28.23
2022-11-03T23:21:53.576Z,21.98
2022-11-03T23:24:43.936Z,21.20
2022-11-03T23:27:13.937Z,28.10
2022-11-03T23:29:41.426Z,30.73
2022-11-03T23:32:08.946Z,23.85
2022-11-03T23:34:36.409Z,26.83
2022-11-03T23:37:04.167Z,28.73
2022-11-03T23:39:31.619Z,26.75
2022-11-03T23:41:59.077Z,28.55
2022-11-03T23:44:46.536Z,34.63
2022-11-03T23:47:32.594Z,30.63
2022-11-03T23:50:00.097Z,28.70
2022-11-03T23:52:27.529Z,24.00
2022-11-03T23:54:54.996Z,31.58
2022-11-03T23:57:41.179Z,32.58
